KESWICK RESERVOIR (KES)

Elevation: 596' · SACRAMENTO R basin · Operator: US Bureau of Reclamation

Provisional data, subject to change.
Query executed Friday at 21:09:02   clock

Select a sensor type for a plot of data.
Note: Reservoir Flows are daily averages.

Earlier

Date RES ELE    STORAGE    RES CHG    OUTFLOW    INFLOW   
 FEET   AF   AF   CFS   CFS  
01/01/2015 579.42 19198 -163 2991 2910
01/02/2015 577.52 18149 -1049 2966 2438
01/03/2015 579.57 19282 1133 2963 3535
01/04/2015 578.53 18703 -579 2985 2694
01/05/2015 578.67 18780 77 2967 3006
01/06/2015 576.88 17803 -977 2967 2475
01/07/2015 576.05 17361 -442 2940 2718
01/08/2015 576.14 17409 48 2940 2965
01/09/2015 576.65 17680 271 3003 3141
01/10/2015 576.73 17723 43 3179 3201
01/11/2015 576.97 17851 128 3168 3233
01/12/2015 577.55 18166 315 3180 3339
01/13/2015 581.93 20645 2479 3179 4430
01/14/2015 584.83 22402 1757 3172 4060
01/15/2015 583.11 21350 -1052 3066 2538
01/16/2015 582.13 20764 -586 2911 2617
01/17/2015 580.16 19616 -1148 2910 2332
01/18/2015 579.29 19125 -491 2914 2666
01/19/2015 583.77 21750 2625 2911 4235
01/20/2015 583.98 21878 128 2912 2978
01/21/2015 583.61 21653 -225 2868 2757
01/22/2015 579.07 19001 -2652 2866 1531
01/23/2015 581.26 20252 1251 2865 3498
01/24/2015 583.74 21732 1480 2815 3565
01/25/2015 580.14 19605 -2127 2815 1746
01/26/2015 577.23 17992 -1613 2815 2004
01/27/2015 581.56 20428 2436 2812 4049
01/28/2015 578.59 18736 -1692 2816 1964
01/29/2015 580.93 20060 1324 2828 3497
01/30/2015 -- -- -- -- --

Later | Latest

Warning! This data is preliminary and subject to revision.

Show KES Map | Plot KES Data | 1 Month KES Data | Real-Time KES Data | KES Info